createdAt,value
2022-10-24T00:01:14.400Z,23.14
2022-10-24T00:03:41.555Z,23.29
2022-10-24T00:06:10.427Z,23.28
2022-10-24T00:08:38.225Z,23.27
2022-10-24T00:11:26.293Z,23.28
2022-10-24T00:13:55.188Z,23.27
2022-10-24T00:16:21.835Z,23.27
2022-10-24T00:18:48.500Z,23.26
2022-10-24T00:21:15.187Z,23.25
2022-10-24T00:23:41.791Z,23.25
2022-10-24T00:26:08.508Z,23.26
2022-10-24T00:28:36.732Z,23.20
2022-10-24T00:31:05.283Z,23.25
2022-10-24T00:33:32.125Z,23.25
2022-10-24T00:35:58.788Z,23.24
2022-10-24T00:38:25.552Z,23.23
2022-10-24T00:40:52.162Z,23.22
2022-10-24T00:43:25.457Z,23.22
2022-10-24T00:45:59.202Z,23.22
2022-10-24T00:48:31.813Z,23.22
2022-10-24T00:51:05.097Z,23.22
2022-10-24T00:53:35.485Z,23.21
2022-10-24T00:58:25.812Z,23.21
2022-10-24T01:00:52.469Z,23.20
2022-10-24T01:03:19.511Z,23.19
2022-10-24T01:05:59.283Z,23.18
2022-10-24T01:08:31.583Z,23.17
2022-10-24T01:11:13.433Z,23.16
2022-10-24T01:14:17.435Z,23.16
2022-10-24T01:17:22.953Z,23.16
2022-10-24T01:20:02.844Z,23.16
2022-10-24T01:22:43.237Z,23.15
2022-10-24T01:25:51.716Z,23.15
2022-10-24T01:28:24.477Z,23.15
2022-10-24T01:30:59.696Z,23.14
2022-10-24T01:33:35.132Z,23.14
2022-10-24T01:36:12.041Z,23.14
2022-10-24T01:38:45.602Z,23.13
2022-10-24T01:41:22.888Z,23.15
2022-10-24T01:44:05.613Z,23.12
2022-10-24T01:46:36.696Z,23.13
2022-10-24T01:49:08.880Z,23.13
2022-10-24T01:51:36.533Z,23.12
2022-10-24T01:54:04.239Z,23.13
2022-10-24T01:56:30.824Z,23.12
2022-10-24T01:59:08.400Z,23.11
2022-10-24T02:01:36.828Z,23.11
2022-10-24T02:04:08.196Z,23.12
2022-10-24T02:06:40.105Z,23.10
2022-10-24T02:09:12.522Z,23.10
2022-10-24T02:11:41.629Z,23.09
2022-10-24T02:14:17.001Z,23.10
2022-10-24T02:16:44.879Z,23.08
2022-10-24T02:19:13.976Z,23.06
2022-10-24T02:22:00.739Z,23.09
2022-10-24T02:24:33.515Z,23.09
2022-10-24T02:27:09.377Z,23.09
2022-10-24T02:29:42.907Z,23.08
2022-10-24T02:32:15.352Z,22.96
2022-10-24T02:34:44.245Z,23.08
2022-10-24T02:37:13.920Z,23.08
2022-10-24T02:39:42.684Z,23.02
2022-10-24T02:42:11.495Z,23.07
2022-10-24T02:44:39.330Z,23.06
2022-10-24T02:47:08.008Z,23.05
2022-10-24T02:49:34.751Z,23.05
2022-10-24T02:52:01.864Z,23.04
2022-10-24T02:54:28.516Z,23.01
2022-10-24T02:57:00.505Z,23.04
2022-10-24T02:59:27.077Z,23.03
2022-10-24T03:01:53.724Z,23.03
2022-10-24T03:04:20.327Z,23.03
2022-10-24T03:06:47.033Z,23.03
2022-10-24T03:09:13.681Z,22.95
2022-10-24T03:11:40.353Z,23.02
2022-10-24T03:14:07.092Z,23.01
2022-10-24T03:16:33.704Z,23.00
2022-10-24T03:19:00.332Z,23.00
2022-10-24T03:21:27.007Z,22.99
2022-10-24T03:23:53.763Z,22.97
2022-10-24T03:26:20.312Z,22.97
2022-10-24T03:28:46.835Z,22.95
2022-10-24T03:31:13.372Z,22.98
2022-10-24T03:33:39.959Z,22.97
2022-10-24T03:36:06.939Z,22.96
2022-10-24T03:38:33.517Z,22.95
2022-10-24T03:41:00.007Z,22.95
2022-10-24T03:43:26.579Z,22.96
2022-10-24T03:45:53.184Z,22.95
2022-10-24T03:48:19.740Z,22.94
2022-10-24T03:50:46.236Z,22.94
2022-10-24T03:53:12.964Z,22.95
2022-10-24T03:55:39.501Z,22.95
2022-10-24T03:58:06.091Z,22.95
2022-10-24T04:00:38.778Z,22.95
2022-10-24T04:03:06.300Z,22.95
2022-10-24T04:05:34.021Z,22.89
2022-10-24T04:08:01.036Z,22.93
2022-10-24T04:10:28.566Z,22.93
2022-10-24T04:12:55.280Z,22.94
2022-10-24T04:15:21.926Z,22.94
2022-10-24T04:17:48.484Z,22.93
2022-10-24T04:20:19.509Z,22.92
2022-10-24T04:22:47.646Z,22.93
2022-10-24T04:25:14.760Z,22.92
2022-10-24T04:27:41.484Z,22.92
2022-10-24T04:32:19.295Z,22.93
2022-10-24T04:34:45.906Z,22.90
2022-10-24T04:37:12.554Z,22.91
2022-10-24T04:39:39.212Z,22.91
2022-10-24T04:42:05.752Z,22.90
2022-10-24T04:44:32.460Z,22.90
2022-10-24T04:46:59.014Z,22.89
2022-10-24T04:49:25.567Z,22.89
2022-10-24T04:51:52.062Z,22.89
2022-10-24T04:54:18.755Z,22.90
2022-10-24T04:56:45.240Z,22.89
2022-10-24T04:59:11.771Z,22.79
2022-10-24T05:01:38.407Z,22.89
2022-10-24T05:04:05.104Z,22.89
2022-10-24T05:06:31.658Z,22.88
2022-10-24T05:08:58.411Z,22.88
2022-10-24T05:11:24.907Z,22.89
2022-10-24T05:13:51.695Z,22.89
2022-10-24T05:16:18.225Z,22.88
2022-10-24T05:18:44.768Z,22.88
2022-10-24T05:21:11.593Z,22.88
2022-10-24T05:23:38.205Z,22.88
2022-10-24T05:26:04.865Z,22.86
2022-10-24T05:28:31.756Z,22.89
2022-10-24T05:30:58.494Z,22.88
2022-10-24T05:33:25.231Z,22.88
2022-10-24T05:35:52.301Z,22.89
2022-10-24T05:38:19.229Z,22.89
2022-10-24T05:40:49.319Z,22.88
2022-10-24T05:43:16.382Z,22.88
2022-10-24T05:45:43.565Z,22.88
2022-10-24T05:48:10.156Z,22.87
2022-10-24T05:50:36.672Z,22.87
2022-10-24T05:53:03.935Z,22.87
2022-10-24T05:55:31.286Z,22.87
2022-10-24T05:57:57.854Z,22.88
2022-10-24T06:00:24.423Z,22.77
2022-10-24T06:02:51.116Z,22.87
2022-10-24T06:05:17.994Z,22.89
2022-10-24T06:07:45.173Z,22.90
2022-10-24T06:10:12.962Z,22.91
2022-10-24T06:12:39.690Z,22.92
2022-10-24T06:15:08.934Z,22.92
2022-10-24T06:17:35.974Z,22.92
2022-10-24T06:20:02.719Z,22.88
2022-10-24T06:22:29.971Z,22.92
2022-10-24T06:24:56.931Z,22.92
2022-10-24T06:27:24.108Z,22.88
2022-10-24T06:29:50.644Z,22.92
2022-10-24T06:32:17.252Z,22.95
2022-10-24T06:34:43.777Z,22.95
2022-10-24T06:37:10.378Z,22.97
2022-10-24T06:39:36.896Z,22.99
2022-10-24T06:42:03.465Z,22.99
2022-10-24T06:44:31.217Z,23.02
2022-10-24T06:46:57.759Z,23.04
2022-10-24T06:49:24.273Z,23.05
2022-10-24T06:51:50.901Z,23.08
2022-10-24T06:54:17.453Z,23.09
2022-10-24T06:56:44.097Z,23.09
2022-10-24T06:59:14.014Z,23.11
2022-10-24T07:01:40.846Z,23.10
2022-10-24T07:04:07.729Z,23.13
2022-10-24T07:06:34.909Z,23.14
2022-10-24T07:09:04.393Z,23.16
2022-10-24T07:11:31.308Z,23.17
2022-10-24T07:14:00.794Z,23.17
2022-10-24T07:16:29.031Z,23.18
2022-10-24T07:18:55.839Z,23.19
2022-10-24T07:21:28.720Z,23.21
2022-10-24T07:23:56.087Z,23.24
2022-10-24T07:26:24.510Z,23.25
2022-10-24T07:28:54.695Z,23.26
2022-10-24T07:31:23.559Z,23.29
2022-10-24T07:33:51.439Z,23.30
2022-10-24T07:36:19.950Z,23.30
2022-10-24T07:41:08.124Z,23.36
2022-10-24T07:43:34.701Z,23.38
2022-10-24T07:46:09.453Z,23.40
2022-10-24T07:48:36.780Z,23.42
2022-10-24T07:51:08.464Z,23.44
2022-10-24T07:53:35.620Z,23.47
2022-10-24T07:56:02.927Z,23.48
2022-10-24T07:58:29.592Z,23.51
2022-10-24T08:00:56.189Z,23.52
2022-10-24T08:03:22.781Z,23.55
2022-10-24T08:05:49.304Z,23.56
2022-10-24T08:08:37.169Z,23.58
2022-10-24T08:11:07.586Z,23.60
2022-10-24T08:13:34.300Z,23.62
2022-10-24T08:16:00.839Z,23.65
2022-10-24T08:18:30.202Z,23.67
2022-10-24T08:21:01.839Z,23.68
2022-10-24T08:23:28.819Z,23.61
2022-10-24T08:28:09.410Z,23.72
2022-10-24T08:30:36.005Z,23.49
2022-10-24T08:33:02.746Z,23.78
2022-10-24T08:38:01.680Z,23.74
2022-10-24T08:40:28.328Z,23.83
2022-10-24T08:42:54.852Z,23.84
2022-10-24T08:45:35.841Z,23.83
2022-10-24T08:48:09.844Z,23.87
2022-10-24T08:50:38.304Z,23.91
2022-10-24T08:53:22.597Z,23.92
2022-10-24T08:55:53.561Z,23.89
2022-10-24T08:58:26.137Z,23.98
2022-10-24T09:00:56.361Z,24.00
2022-10-24T09:03:55.456Z,23.98
2022-10-24T09:06:26.830Z,24.07
2022-10-24T09:09:01.105Z,24.11
2022-10-24T09:11:53.236Z,24.13
2022-10-24T09:14:26.997Z,24.10
2022-10-24T09:16:58.916Z,24.17
2022-10-24T09:19:27.720Z,24.19
2022-10-24T09:21:56.332Z,24.21
2022-10-24T09:24:25.888Z,24.24
2022-10-24T09:26:52.635Z,24.10
2022-10-24T09:29:19.283Z,24.27
2022-10-24T09:31:49.363Z,24.31
2022-10-24T09:38:52.437Z,24.33
2022-10-24T09:41:24.280Z,24.34
2022-10-24T09:43:56.923Z,24.25
2022-10-24T09:46:45.907Z,24.32
2022-10-24T09:49:12.536Z,24.32
2022-10-24T09:51:45.302Z,24.26
2022-10-24T09:54:17.976Z,24.34
2022-10-24T09:59:22.053Z,24.36
2022-10-24T10:01:49.456Z,24.38
2022-10-24T10:04:18.417Z,24.40
2022-10-24T10:06:50.139Z,24.43
2022-10-24T10:09:25.716Z,24.33
2022-10-24T10:12:02.427Z,24.44
2022-10-24T10:14:30.294Z,24.46
2022-10-24T10:17:01.912Z,24.44
2022-10-24T10:19:35.777Z,24.44
2022-10-24T10:22:21.727Z,24.44
2022-10-24T10:24:48.965Z,24.47
2022-10-24T10:27:38.741Z,24.48
2022-10-24T10:30:17.098Z,24.49
2022-10-24T10:33:02.191Z,24.50
2022-10-24T10:35:37.881Z,24.51
2022-10-24T10:38:07.064Z,24.52
2022-10-24T10:41:08.856Z,24.53
2022-10-24T10:43:48.524Z,24.55
2022-10-24T10:46:24.223Z,24.55
2022-10-24T10:48:58.281Z,24.56
2022-10-24T10:52:02.828Z,24.56
2022-10-24T10:54:41.951Z,24.56
2022-10-24T10:57:28.820Z,24.20
2022-10-24T11:00:09.072Z,24.57
2022-10-24T11:02:41.549Z,24.56
2022-10-24T11:05:52.793Z,24.54
2022-10-24T11:08:39.617Z,24.51
2022-10-24T11:11:24.673Z,24.49
2022-10-24T11:14:02.279Z,24.44
2022-10-24T11:16:30.784Z,24.50
2022-10-24T11:19:05.055Z,24.48
2022-10-24T11:21:35.181Z,24.51
2022-10-24T11:24:15.800Z,24.51
2022-10-24T11:26:50.597Z,24.50
2022-10-24T11:29:31.073Z,24.46
2022-10-24T11:34:45.109Z,24.51
2022-10-24T11:37:37.896Z,24.52
2022-10-24T11:40:14.642Z,24.53
2022-10-24T11:43:18.396Z,24.53
2022-10-24T11:46:09.822Z,24.54
2022-10-24T11:48:36.368Z,24.55
2022-10-24T11:51:08.756Z,24.55
2022-10-24T11:53:35.354Z,24.56
2022-10-24T11:56:12.091Z,24.58
2022-10-24T11:58:52.234Z,24.55
2022-10-24T12:01:47.356Z,24.63
2022-10-24T12:04:32.591Z,24.63
2022-10-24T12:07:48.733Z,24.66
2022-10-24T12:10:27.487Z,24.65
2022-10-24T12:13:33.890Z,24.65
2022-10-24T12:16:28.847Z,24.65
2022-10-24T12:19:02.158Z,24.62
2022-10-24T12:21:37.569Z,24.65
2022-10-24T12:24:04.537Z,24.65
2022-10-24T12:26:34.331Z,24.66
2022-10-24T12:29:19.005Z,24.69
2022-10-24T12:31:45.769Z,24.69
2022-10-24T12:34:15.413Z,24.68
2022-10-24T12:37:04.376Z,24.67
2022-10-24T12:39:45.923Z,24.54
2022-10-24T12:42:19.867Z,24.68
2022-10-24T12:44:50.504Z,24.70
2022-10-24T12:47:27.041Z,24.72
2022-10-24T12:49:54.092Z,24.74
2022-10-24T12:52:32.833Z,24.76
2022-10-24T12:54:59.976Z,24.78
2022-10-24T12:57:31.260Z,24.79
2022-10-24T13:00:02.355Z,24.80
2022-10-24T13:02:31.918Z,24.80
2022-10-24T13:05:01.541Z,24.81
2022-10-24T13:08:06.349Z,24.83
2022-10-24T13:10:51.281Z,24.83
2022-10-24T13:13:36.761Z,24.82
2022-10-24T13:16:07.021Z,24.78
2022-10-24T13:18:49.189Z,24.85
2022-10-24T13:21:15.768Z,24.86
2022-10-24T13:23:47.719Z,24.85
2022-10-24T13:26:32.980Z,24.85
2022-10-24T13:28:59.563Z,24.85
2022-10-24T13:31:26.137Z,24.86
2022-10-24T13:34:07.353Z,24.87
2022-10-24T13:36:34.925Z,24.86
2022-10-24T13:39:12.608Z,24.87
2022-10-24T13:41:49.964Z,24.73
2022-10-24T13:44:32.854Z,24.88
2022-10-24T13:47:11.457Z,24.90
2022-10-24T13:49:46.118Z,24.89
2022-10-24T13:52:24.787Z,24.90
2022-10-24T13:54:58.310Z,24.92
2022-10-24T13:57:33.579Z,24.91
2022-10-24T14:00:08.666Z,24.92
2022-10-24T14:02:42.961Z,24.94
2022-10-24T14:05:39.221Z,24.95
2022-10-24T14:08:08.070Z,24.96
2022-10-24T14:10:35.141Z,24.98
2022-10-24T14:13:02.157Z,25.00
2022-10-24T14:15:32.529Z,25.02
2022-10-24T14:18:08.565Z,25.02
2022-10-24T14:20:37.164Z,25.02
2022-10-24T14:23:27.082Z,25.01
2022-10-24T14:28:16.798Z,25.02
2022-10-24T14:33:15.369Z,25.04
2022-10-24T14:35:42.456Z,25.04
2022-10-24T14:38:14.851Z,24.99
2022-10-24T14:40:43.379Z,25.05
2022-10-24T14:43:35.136Z,25.07
2022-10-24T14:46:13.898Z,25.05
2022-10-24T14:48:48.622Z,25.04
2022-10-24T14:51:39.333Z,25.08
2022-10-24T14:54:17.475Z,25.13
2022-10-24T14:56:44.649Z,25.17
2022-10-24T14:59:36.699Z,25.21
2022-10-24T15:02:42.080Z,25.24
2022-10-24T15:05:19.835Z,25.28
2022-10-24T15:08:16.683Z,25.30
2022-10-24T15:10:40.885Z,25.40
2022-10-24T15:13:15.054Z,25.54
2022-10-24T15:15:49.838Z,25.71
2022-10-24T15:18:28.748Z,25.89
2022-10-24T15:21:12.884Z,25.95
2022-10-24T15:23:48.902Z,25.94
2022-10-24T15:26:24.271Z,25.53
2022-10-24T15:29:06.169Z,25.89
2022-10-24T15:31:37.871Z,25.86
2022-10-24T15:34:07.573Z,25.84
2022-10-24T15:36:36.539Z,25.82
2022-10-24T15:39:06.789Z,25.74
2022-10-24T15:41:33.813Z,25.81
2022-10-24T15:44:01.633Z,25.80
2022-10-24T15:46:28.863Z,25.67
2022-10-24T15:48:55.364Z,25.80
2022-10-24T15:51:24.393Z,25.79
2022-10-24T15:53:52.728Z,25.80
2022-10-24T15:56:19.300Z,25.79
2022-10-24T15:58:45.833Z,25.78
2022-10-24T16:03:41.384Z,25.76
2022-10-24T16:06:07.951Z,25.75
2022-10-24T16:08:34.431Z,25.74
2022-10-24T16:11:03.963Z,25.73
2022-10-24T16:13:33.048Z,25.72
2022-10-24T16:15:59.739Z,25.72
2022-10-24T16:18:26.379Z,25.71
2022-10-24T16:20:52.869Z,25.70
2022-10-24T16:23:19.580Z,25.68
2022-10-24T16:25:46.415Z,25.68
2022-10-24T16:28:13.109Z,25.69
2022-10-24T16:30:42.695Z,25.68
2022-10-24T16:33:09.462Z,25.68
2022-10-24T16:35:37.564Z,25.69
2022-10-24T16:38:05.583Z,25.68
2022-10-24T16:40:37.254Z,25.67
2022-10-24T16:45:31.920Z,25.68
2022-10-24T16:47:58.843Z,25.73
2022-10-24T16:50:29.653Z,25.92
2022-10-24T16:53:09.447Z,26.10
2022-10-24T16:55:36.580Z,26.11
2022-10-24T16:58:03.394Z,26.13
2022-10-24T17:00:30.696Z,26.12
2022-10-24T17:02:58.074Z,26.09
2022-10-24T17:05:27.485Z,26.04
2022-10-24T17:10:07.790Z,25.98
2022-10-24T17:12:35.056Z,25.95
2022-10-24T17:15:03.165Z,25.91
2022-10-24T17:17:30.019Z,25.88
2022-10-24T17:19:56.666Z,25.83
2022-10-24T17:22:23.593Z,25.84
2022-10-24T17:24:50.500Z,25.82
2022-10-24T17:27:17.333Z,25.80
2022-10-24T17:29:44.052Z,25.80
2022-10-24T17:32:13.044Z,25.78
2022-10-24T17:34:43.230Z,25.76
2022-10-24T17:37:21.828Z,25.75
2022-10-24T17:40:12.948Z,25.73
2022-10-24T17:42:40.792Z,25.72
2022-10-24T17:45:19.801Z,25.70
2022-10-24T17:50:18.395Z,25.67
2022-10-24T17:52:50.704Z,25.67
2022-10-24T17:57:39.780Z,25.64
2022-10-24T18:00:08.423Z,25.58
2022-10-24T18:02:43.449Z,25.61
2022-10-24T18:05:10.161Z,25.59
2022-10-24T18:07:36.659Z,25.60
2022-10-24T18:10:03.528Z,25.58
2022-10-24T18:12:35.436Z,25.55
2022-10-24T18:15:02.331Z,25.13
2022-10-24T18:17:29.045Z,25.54
2022-10-24T18:19:55.617Z,25.50
2022-10-24T18:22:31.576Z,25.50
2022-10-24T18:24:58.593Z,25.37
2022-10-24T18:27:25.113Z,25.46
2022-10-24T18:29:51.796Z,25.48
2022-10-24T18:32:20.192Z,25.46
2022-10-24T18:34:46.970Z,25.38
2022-10-24T18:39:13.853Z,25.44
2022-10-24T18:41:43.987Z,25.43
2022-10-24T18:44:29.847Z,25.28
2022-10-24T18:47:01.235Z,25.53
2022-10-24T18:49:29.325Z,25.13
2022-10-24T18:52:11.041Z,25.57
2022-10-24T18:54:43.033Z,25.58
2022-10-24T18:57:20.730Z,25.57
2022-10-24T18:59:51.093Z,25.55
2022-10-24T19:02:25.874Z,25.53
2022-10-24T19:05:03.442Z,25.48
2022-10-24T19:07:30.177Z,25.51
2022-10-24T19:09:56.775Z,25.48
2022-10-24T19:12:23.699Z,25.48
2022-10-24T19:14:50.440Z,25.45
2022-10-24T19:17:17.032Z,25.43
2022-10-24T19:19:43.625Z,25.44
2022-10-24T19:22:10.281Z,25.43
2022-10-24T19:24:36.773Z,25.40
2022-10-24T19:27:03.417Z,25.42
2022-10-24T19:29:30.026Z,25.39
2022-10-24T19:31:56.728Z,25.39
2022-10-24T19:34:23.290Z,25.39
2022-10-24T19:36:50.325Z,25.37
2022-10-24T19:41:37.246Z,25.36
2022-10-24T19:44:04.982Z,25.36
2022-10-24T19:46:31.487Z,25.21
2022-10-24T19:48:58.373Z,25.36
2022-10-24T19:51:25.242Z,25.37
2022-10-24T19:53:52.786Z,25.38
2022-10-24T19:56:25.125Z,25.39
2022-10-24T19:58:53.244Z,25.36
2022-10-24T20:01:22.282Z,25.41
2022-10-24T20:03:50.156Z,25.41
2022-10-24T20:06:17.641Z,25.32
2022-10-24T20:08:46.472Z,25.41
2022-10-24T20:11:15.359Z,25.42
2022-10-24T20:13:43.321Z,25.41
2022-10-24T20:16:10.537Z,25.41
2022-10-24T20:18:38.674Z,25.42
2022-10-24T20:21:08.361Z,25.42
2022-10-24T20:23:35.885Z,25.42
2022-10-24T20:26:06.440Z,25.42
2022-10-24T20:28:38.697Z,25.42
2022-10-24T20:31:06.554Z,25.42
2022-10-24T20:33:34.048Z,25.41
2022-10-24T20:36:01.686Z,25.42
2022-10-24T20:38:28.484Z,25.42
2022-10-24T20:40:57.876Z,25.42
2022-10-24T20:43:24.378Z,25.43
2022-10-24T20:45:50.995Z,25.43
2022-10-24T20:48:17.501Z,25.43
2022-10-24T20:50:44.100Z,25.40
2022-10-24T20:53:10.641Z,25.42
2022-10-24T20:55:45.463Z,25.43
2022-10-24T20:58:16.290Z,25.43
2022-10-24T21:00:42.851Z,25.43
2022-10-24T21:03:12.172Z,25.43
2022-10-24T21:05:39.050Z,25.43
2022-10-24T21:08:05.895Z,25.43
2022-10-24T21:10:32.420Z,25.38
2022-10-24T21:12:59.006Z,25.42
2022-10-24T21:15:25.636Z,25.42
2022-10-24T21:20:43.540Z,25.39
2022-10-24T21:23:10.100Z,25.38
2022-10-24T21:25:36.753Z,25.39
2022-10-24T21:28:03.513Z,25.38
2022-10-24T21:30:29.985Z,25.38
2022-10-24T21:32:57.490Z,25.40
2022-10-24T21:35:24.081Z,25.41
2022-10-24T21:37:50.588Z,25.41
2022-10-24T21:40:18.151Z,25.41
2022-10-24T21:42:45.323Z,25.33
2022-10-24T21:45:12.102Z,25.43
2022-10-24T21:47:38.704Z,25.08
2022-10-24T21:50:05.627Z,25.43
2022-10-24T21:52:32.935Z,25.42
2022-10-24T21:54:59.503Z,25.44
2022-10-24T21:57:28.401Z,25.45
2022-10-24T21:59:54.902Z,25.45
2022-10-24T22:02:21.672Z,25.45
2022-10-24T22:04:48.340Z,25.45
2022-10-24T22:07:14.982Z,25.44
2022-10-24T22:09:41.519Z,25.44
2022-10-24T22:12:08.185Z,25.45
2022-10-24T22:14:34.667Z,25.45
2022-10-24T22:17:01.350Z,25.45
2022-10-24T22:19:27.923Z,25.44
2022-10-24T22:21:54.492Z,25.45
2022-10-24T22:24:23.554Z,25.45
2022-10-24T22:26:51.511Z,25.45
2022-10-24T22:29:21.449Z,25.44
2022-10-24T22:31:48.744Z,25.44
2022-10-24T22:34:26.405Z,25.44
2022-10-24T22:37:20.019Z,25.44
2022-10-24T22:39:47.024Z,25.37
2022-10-24T22:42:19.167Z,25.43
2022-10-24T22:47:26.922Z,25.44
2022-10-24T22:50:21.767Z,25.43
2022-10-24T22:52:50.082Z,25.43
2022-10-24T22:55:35.232Z,25.43
2022-10-24T22:58:02.129Z,25.44
2022-10-24T23:00:29.018Z,25.44
2022-10-24T23:03:26.357Z,25.43
2022-10-24T23:06:04.087Z,25.43
2022-10-24T23:08:41.225Z,25.44
2022-10-24T23:11:11.383Z,25.43
2022-10-24T23:13:38.718Z,25.44
2022-10-24T23:16:21.883Z,25.44
2022-10-24T23:18:48.837Z,25.45
2022-10-24T23:21:38.155Z,25.45
2022-10-24T23:24:14.329Z,25.45
2022-10-24T23:29:26.868Z,25.45
2022-10-24T23:31:53.736Z,25.44
2022-10-24T23:34:20.727Z,25.44
2022-10-24T23:36:48.279Z,25.44
2022-10-24T23:39:15.851Z,25.45
2022-10-24T23:41:42.789Z,25.45
2022-10-24T23:44:11.080Z,25.44
2022-10-24T23:46:45.467Z,25.44
2022-10-24T23:49:14.911Z,25.46
2022-10-24T23:51:47.043Z,25.44
2022-10-24T23:54:13.966Z,25.45
2022-10-24T23:56:41.205Z,25.45
2022-10-24T23:59:07.832Z,25.45
